createdAt,value
2023-01-28T00:00:53.815Z,102013.20
2023-01-28T00:06:23.033Z,102015.87
2023-01-28T00:11:45.378Z,102004.48
2023-01-28T00:17:07.699Z,101998.38
2023-01-28T00:22:29.928Z,101980.87
2023-01-28T00:27:52.164Z,101991.41
2023-01-28T00:33:14.444Z,101986.14
2023-01-28T00:38:37.344Z,101983.52
2023-01-28T00:44:00.659Z,101987.05
2023-01-28T00:49:22.932Z,101996.68
2023-01-28T00:54:45.331Z,101994.07
2023-01-28T01:00:07.608Z,102002.83
2023-01-28T01:05:30.160Z,101997.56
2023-01-28T01:10:53.080Z,101999.31
2023-01-28T01:16:28.007Z,102001.06
2023-01-28T01:21:51.107Z,101998.46
2023-01-28T01:27:13.539Z,101993.17
2023-01-28T01:32:36.916Z,101994.93
2023-01-28T01:38:00.044Z,101990.55
2023-01-28T01:43:30.572Z,101991.42
2023-01-28T01:48:55.085Z,101990.58
2023-01-28T01:54:18.433Z,101991.44
2023-01-28T01:59:43.817Z,101994.95
2023-01-28T02:05:06.580Z,102002.83
2023-01-28T02:10:30.027Z,101995.83
2023-01-28T02:15:52.973Z,101996.70
2023-01-28T02:21:45.349Z,101977.41
2023-01-28T02:27:43.027Z,101984.45
2023-01-28T02:33:10.661Z,101991.45
2023-01-28T02:38:40.092Z,101987.05
2023-01-28T02:44:04.466Z,101992.30
2023-01-28T02:49:37.319Z,101987.05
2023-01-28T02:55:04.422Z,101986.20
2023-01-28T03:00:34.183Z,101974.80
2023-01-28T03:06:05.758Z,101972.16
2023-01-28T03:11:45.698Z,101966.89
2023-01-28T03:17:29.811Z,101974.81
2023-01-28T03:23:13.765Z,101966.92
2023-01-28T03:28:56.316Z,101973.05
2023-01-28T03:34:39.668Z,101974.81
2023-01-28T03:40:02.889Z,101975.67
2023-01-28T03:45:25.875Z,101980.92
2023-01-28T03:50:49.315Z,101981.80
2023-01-28T03:56:14.975Z,101982.69
2023-01-28T04:01:37.887Z,101981.81
2023-01-28T04:07:00.703Z,101983.55
2023-01-28T04:12:23.863Z,101987.06
2023-01-28T04:17:46.071Z,101987.07
2023-01-28T04:23:12.178Z,101988.82
2023-01-28T04:28:34.847Z,101986.19
2023-01-28T04:33:57.162Z,101989.67
2023-01-28T04:39:19.445Z,101980.92
2023-01-28T04:44:41.761Z,101977.42
2023-01-28T04:50:04.603Z,101983.55
2023-01-28T04:55:27.652Z,101991.44
2023-01-28T05:00:50.046Z,101994.94
2023-01-28T05:06:12.844Z,101990.56
2023-01-28T05:11:38.725Z,102000.20
2023-01-28T05:17:00.281Z,102000.22
2023-01-28T05:22:23.201Z,102002.83
2023-01-28T05:27:47.036Z,102010.72
2023-01-28T05:33:11.193Z,102001.98
2023-01-28T05:38:33.389Z,102014.24
2023-01-28T05:43:56.512Z,102008.98
2023-01-28T05:49:19.753Z,102017.74
2023-01-28T05:54:42.608Z,102031.77
2023-01-28T06:00:06.033Z,102015.11
2023-01-28T06:05:28.882Z,102012.48
2023-01-28T06:10:51.823Z,102010.72
2023-01-28T06:16:15.063Z,102015.12
2023-01-28T06:21:37.969Z,102025.63
2023-01-28T06:27:00.620Z,102028.27
2023-01-28T06:32:23.182Z,102036.16
2023-01-28T06:37:45.780Z,102037.91
2023-01-28T06:43:08.211Z,102036.17
2023-01-28T06:48:30.955Z,102047.55
2023-01-28T06:53:53.226Z,102046.67
2023-01-28T06:59:15.429Z,102050.19
2023-01-28T07:04:38.301Z,102048.42
2023-01-28T07:10:01.001Z,102048.41
2023-01-28T07:15:24.242Z,102038.78
2023-01-28T07:20:46.653Z,102049.29
2023-01-28T07:26:10.926Z,102051.91
2023-01-28T07:31:33.882Z,102051.94
2023-01-28T07:36:57.515Z,102058.06
2023-01-28T07:42:20.485Z,102060.69
2023-01-28T07:47:42.888Z,102056.30
2023-01-28T07:53:05.642Z,102065.03
2023-01-28T07:58:30.156Z,102058.86
2023-01-28T08:03:52.472Z,102061.47
2023-01-28T08:09:14.700Z,102064.10
2023-01-28T08:14:37.063Z,102074.64
2023-01-28T08:19:59.875Z,102063.21
2023-01-28T08:25:22.333Z,102061.38
2023-01-28T08:30:45.340Z,102065.70
2023-01-28T08:36:09.401Z,102071.88
2023-01-28T08:41:31.844Z,102058.62
2023-01-28T08:46:54.113Z,102076.14
2023-01-28T08:52:16.413Z,102066.51
2023-01-28T08:57:38.669Z,102066.49
2023-01-28T09:03:05.586Z,102076.16
2023-01-28T09:08:28.593Z,102069.98
2023-01-28T09:13:50.824Z,102065.49
2023-01-28T09:19:15.003Z,102065.41
2023-01-28T09:24:39.068Z,102067.13
2023-01-28T09:30:01.829Z,102059.91
2023-01-28T09:35:24.519Z,102061.62
2023-01-28T09:40:52.876Z,102066.14
2023-01-28T09:46:20.197Z,102057.36
2023-01-28T09:52:01.361Z,102057.21
2023-01-28T09:57:27.767Z,102059.84
2023-01-28T10:03:09.758Z,102068.81
2023-01-28T10:15:05.969Z,102065.39
2023-01-28T10:20:34.218Z,102072.48
2023-01-28T10:25:59.720Z,102075.98
2023-01-28T10:31:23.645Z,102060.22
2023-01-28T10:36:47.239Z,102069.86
2023-01-28T10:42:12.631Z,102070.70
2023-01-28T10:47:48.363Z,102075.13
2023-01-28T10:53:19.908Z,102067.22
2023-01-28T10:58:58.026Z,102070.69
2023-01-28T11:04:23.610Z,102072.42
2023-01-28T11:09:55.799Z,102071.53
2023-01-28T11:15:21.517Z,102061.02
2023-01-28T11:20:48.111Z,102057.44
2023-01-28T11:26:18.404Z,102051.38
2023-01-28T11:31:43.942Z,102054.03
2023-01-28T11:37:29.439Z,102046.91
2023-01-28T11:42:52.024Z,102047.77
2023-01-28T11:48:36.146Z,102031.01
2023-01-28T11:54:03.303Z,102045.11
2023-01-28T11:59:49.986Z,102046.13
2023-01-28T12:05:45.863Z,102032.08
2023-01-28T12:11:29.330Z,102037.26
2023-01-28T12:16:59.627Z,102028.55
2023-01-28T12:22:41.949Z,102032.09
2023-01-28T12:28:46.663Z,102024.20
2023-01-28T12:40:31.393Z,102023.26
2023-01-28T12:46:04.226Z,102018.06
2023-01-28T12:51:37.504Z,102015.42
2023-01-28T12:57:07.404Z,102033.90
2023-01-28T13:02:40.723Z,102028.62
2023-01-28T13:08:17.473Z,102024.22
2023-01-28T13:13:59.377Z,102016.30
2023-01-28T13:19:45.008Z,102017.24
2023-01-28T13:25:27.992Z,102019.01
2023-01-28T13:30:56.102Z,102008.56
2023-01-28T13:36:28.925Z,102010.33
2023-01-28T13:42:05.390Z,102000.65
2023-01-28T13:47:40.970Z,102005.05
2023-01-28T13:53:08.446Z,102011.25
2023-01-28T13:59:00.150Z,102013.85
2023-01-28T14:04:46.586Z,102005.98
2023-01-28T14:10:35.827Z,101997.22
2023-01-28T14:16:28.048Z,102003.30
2023-01-28T14:21:52.233Z,102004.17
2023-01-28T14:27:34.344Z,101990.01
2023-01-28T14:33:03.161Z,101990.94
2023-01-28T14:38:28.543Z,101977.74
2023-01-28T14:43:51.413Z,101987.41
2023-01-28T14:55:37.678Z,101967.97
2023-01-28T15:01:09.441Z,101976.88
2023-01-28T15:06:38.624Z,101984.77
2023-01-28T15:12:13.461Z,101969.86
2023-01-28T15:17:46.926Z,101964.61
2023-01-28T15:23:13.448Z,101952.37
2023-01-28T15:28:45.846Z,101952.36
2023-01-28T15:34:32.718Z,101947.99
2023-01-28T15:39:55.784Z,101950.59
2023-01-28T15:45:26.409Z,101934.81
2023-01-28T15:50:49.549Z,101942.72
2023-01-28T15:56:21.660Z,101941.86
2023-01-28T16:01:44.052Z,101943.64
2023-01-28T16:07:11.525Z,101960.34
2023-01-28T16:12:35.993Z,101962.11
2023-01-28T16:18:06.151Z,101972.66
2023-01-28T16:23:39.494Z,101983.20
2023-01-28T16:29:01.344Z,101985.02
2023-01-28T16:34:25.026Z,101978.04
2023-01-28T16:39:47.489Z,101985.91
2023-01-28T16:45:10.091Z,101985.03
2023-01-28T16:50:33.905Z,102005.22
2023-01-28T16:55:56.502Z,101993.84
2023-01-28T17:01:18.873Z,101993.88
2023-01-28T17:06:43.756Z,102000.92
2023-01-28T17:12:06.633Z,101994.75
2023-01-28T17:17:28.844Z,101999.15
2023-01-28T17:22:51.072Z,101990.34
2023-01-28T17:28:14.850Z,101992.09
2023-01-28T17:33:37.185Z,101992.03
2023-01-28T17:39:01.571Z,101981.48
2023-01-28T17:44:27.478Z,101989.36
2023-01-28T17:49:49.820Z,101993.76
2023-01-28T17:55:14.815Z,101999.01
2023-01-28T18:00:39.592Z,102000.79
2023-01-28T18:06:10.932Z,101991.98
2023-01-28T18:11:36.189Z,101992.84
2023-01-28T18:16:59.145Z,101991.95
2023-01-28T18:22:23.493Z,101986.69
2023-01-28T18:27:45.929Z,102001.62
2023-01-28T18:33:08.487Z,101990.21
2023-01-28T18:38:30.946Z,102006.05
2023-01-28T18:43:54.292Z,101999.91
2023-01-28T18:49:17.654Z,102006.94
2023-01-28T18:54:40.083Z,102001.66
2023-01-28T19:00:02.690Z,102006.05
2023-01-28T19:05:25.291Z,101971.80
2023-01-28T19:10:48.848Z,101980.55
2023-01-28T19:16:12.991Z,101977.92
2023-01-28T19:21:36.538Z,101977.06
2023-01-28T19:26:59.460Z,101978.83
2023-01-28T19:32:21.773Z,101984.09
2023-01-28T19:37:47.080Z,101984.08
2023-01-28T19:43:11.420Z,101981.45
2023-01-28T19:48:34.379Z,101984.98
2023-01-28T19:53:58.439Z,101971.80
2023-01-28T19:59:20.848Z,101972.67
2023-01-28T20:04:59.593Z,101979.72
2023-01-28T20:10:07.348Z,101987.62
2023-01-28T20:15:30.142Z,101979.74
2023-01-28T20:20:54.360Z,101954.27
2023-01-28T20:26:17.441Z,101964.84
2023-01-28T20:31:40.163Z,101955.17
2023-01-28T20:37:04.292Z,101953.41
2023-01-28T20:42:27.304Z,101949.89
2023-01-28T20:47:49.480Z,101969.20
2023-01-28T20:53:12.581Z,101956.92
2023-01-28T20:58:34.876Z,101970.95
2023-01-28T21:03:57.169Z,101969.16
2023-01-28T21:09:19.610Z,101962.14
2023-01-28T21:14:42.419Z,101952.47
2023-01-28T21:20:05.463Z,101941.02
2023-01-28T21:25:28.822Z,101934.92
2023-01-28T21:30:51.963Z,101951.66
2023-01-28T21:36:16.584Z,101953.39
2023-01-28T21:41:38.996Z,101949.02
2023-01-28T21:47:01.300Z,101947.27
2023-01-28T21:52:25.433Z,101961.33
2023-01-28T21:57:47.812Z,101962.21
2023-01-28T22:03:11.456Z,101951.69
2023-01-28T22:08:33.919Z,101950.88
2023-01-28T22:13:56.180Z,101939.46
2023-01-28T22:19:18.996Z,101932.43
2023-01-28T22:24:42.369Z,101941.20
2023-01-28T22:30:05.390Z,101935.91
2023-01-28T22:35:27.741Z,101931.52
2023-01-28T22:40:51.519Z,101932.39
2023-01-28T22:46:18.322Z,101941.16
2023-01-28T22:51:44.120Z,101928.00
2023-01-28T22:57:06.376Z,101916.58
2023-01-28T23:02:29.000Z,101921.86
2023-01-28T23:07:51.437Z,101908.70
2023-01-28T23:13:15.398Z,101892.91
2023-01-28T23:18:57.012Z,101868.33
2023-01-28T23:24:23.167Z,101849.94
2023-01-28T23:29:47.195Z,101853.45
2023-01-28T23:35:09.507Z,101856.98
2023-01-28T23:40:33.349Z,101850.81
2023-01-28T23:45:55.714Z,101851.59
2023-01-28T23:51:18.201Z,101862.95
2023-01-28T23:56:40.998Z,101850.58
